createdAt,value
2022-12-25T00:01:21.764Z,6.50
2022-12-25T00:03:50.657Z,7.00
2022-12-25T00:06:19.323Z,6.00
2022-12-25T00:11:20.284Z,6.40
2022-12-25T00:13:49.198Z,6.40
2022-12-25T00:16:26.516Z,6.10
2022-12-25T00:18:58.964Z,6.10
2022-12-25T00:21:27.937Z,6.70
2022-12-25T00:23:58.089Z,6.30
2022-12-25T00:26:28.020Z,6.30
2022-12-25T00:29:00.001Z,6.10
2022-12-25T00:33:57.592Z,6.00
2022-12-25T00:36:26.055Z,5.90
2022-12-25T00:41:38.870Z,6.20
2022-12-25T00:44:09.024Z,6.20
2022-12-25T00:46:37.904Z,4.30
2022-12-25T00:49:06.469Z,6.00
2022-12-25T00:51:35.116Z,5.70
2022-12-25T00:59:00.355Z,5.90
2022-12-25T01:01:28.665Z,5.70
2022-12-25T01:06:25.811Z,5.90
2022-12-25T01:16:38.048Z,5.90
2022-12-25T01:24:03.562Z,6.00
2022-12-25T01:33:57.459Z,5.90
2022-12-25T01:36:27.295Z,5.80
2022-12-25T01:38:55.891Z,5.60
2022-12-25T01:41:26.352Z,5.50
2022-12-25T01:44:06.234Z,5.70
2022-12-25T01:49:12.646Z,5.90
2022-12-25T01:51:51.467Z,5.90
2022-12-25T01:54:26.488Z,5.90
2022-12-25T01:56:57.797Z,5.90
2022-12-25T01:59:28.084Z,7.50
2022-12-25T02:04:39.656Z,5.80
2022-12-25T02:07:25.224Z,5.70
2022-12-25T02:09:54.600Z,5.60
2022-12-25T02:12:35.412Z,5.60
2022-12-25T02:15:09.887Z,5.60
2022-12-25T02:17:59.995Z,5.40
2022-12-25T02:21:18.642Z,5.90
2022-12-25T02:24:23.673Z,5.70
2022-12-25T02:30:06.512Z,5.50
2022-12-25T02:33:18.073Z,5.50
2022-12-25T02:35:54.867Z,5.40
2022-12-25T02:38:34.714Z,5.50
2022-12-25T02:41:11.174Z,5.50
2022-12-25T02:44:00.952Z,5.50
2022-12-25T02:46:48.757Z,5.50
2022-12-25T02:49:42.338Z,7.40
2022-12-25T02:52:38.605Z,5.70
2022-12-25T02:55:40.244Z,5.60
2022-12-25T02:58:34.268Z,5.80
2022-12-25T03:01:42.421Z,5.70
2022-12-25T03:04:32.855Z,5.80
2022-12-25T03:07:10.902Z,5.80
2022-12-25T03:10:12.113Z,5.90
2022-12-25T03:12:55.649Z,5.80
2022-12-25T03:18:15.857Z,7.00
2022-12-25T03:21:01.845Z,5.90
2022-12-25T03:23:52.473Z,5.50
2022-12-25T03:31:53.933Z,5.50
2022-12-25T03:35:06.566Z,5.60
2022-12-25T03:38:16.087Z,5.70
2022-12-25T03:41:31.503Z,5.60
2022-12-25T03:44:57.875Z,5.70
2022-12-25T03:48:01.595Z,5.70
2022-12-25T03:50:57.552Z,5.80
2022-12-25T03:53:56.656Z,5.30
2022-12-25T04:16:06.870Z,5.40
2022-12-25T04:24:24.868Z,5.30
2022-12-25T05:20:08.852Z,5.70
2022-12-25T05:25:05.751Z,6.20
2022-12-25T06:44:21.898Z,6.50
2022-12-25T06:54:16.119Z,6.10
2022-12-25T06:59:13.280Z,6.30
2022-12-25T07:01:56.146Z,6.30
2022-12-25T07:04:38.088Z,6.20
2022-12-25T07:07:09.333Z,6.30
2022-12-25T07:12:23.515Z,6.40
2022-12-25T07:17:21.676Z,6.30
2022-12-25T07:32:12.312Z,7.00
2022-12-25T08:06:51.072Z,7.10
2022-12-25T08:11:48.857Z,7.50
2022-12-25T08:16:47.016Z,7.90
2022-12-25T08:36:42.864Z,8.30
2022-12-25T08:44:08.788Z,8.20
2022-12-25T08:58:59.475Z,8.70
2022-12-25T09:01:27.639Z,8.90
2022-12-25T09:11:22.724Z,9.20
2022-12-25T09:13:51.215Z,9.10
2022-12-25T09:16:23.424Z,9.30
2022-12-25T09:21:20.732Z,9.20
2022-12-25T09:26:19.635Z,9.60
2022-12-25T09:31:22.872Z,9.60
2022-12-25T09:36:25.227Z,9.40
2022-12-25T09:38:53.908Z,9.70
2022-12-25T09:42:00.105Z,9.60
2022-12-25T09:44:41.125Z,9.40
2022-12-25T09:47:15.615Z,9.70
2022-12-25T09:50:11.116Z,9.60
2022-12-25T09:52:58.580Z,9.40
2022-12-25T09:55:31.660Z,9.50
2022-12-25T09:58:02.998Z,9.40
2022-12-25T10:00:38.844Z,9.60
2022-12-25T10:03:50.402Z,9.70
2022-12-25T10:06:24.048Z,9.70
2022-12-25T10:09:14.042Z,9.50
2022-12-25T10:12:23.836Z,10.00
2022-12-25T10:15:41.807Z,10.10
2022-12-25T10:18:56.220Z,10.70
2022-12-25T10:21:25.132Z,10.10
2022-12-25T10:24:34.824Z,10.20
2022-12-25T10:27:16.377Z,10.30
2022-12-25T10:29:46.645Z,10.30
2022-12-25T10:32:15.406Z,10.20
2022-12-25T10:37:13.717Z,10.40
2022-12-25T10:42:37.314Z,10.00
2022-12-25T10:45:10.142Z,10.20
2022-12-25T10:47:42.936Z,10.50
2022-12-25T10:53:14.541Z,10.60
2022-12-25T10:58:22.690Z,10.70
2022-12-25T11:00:58.408Z,10.70
2022-12-25T11:03:31.678Z,10.60
2022-12-25T11:08:34.884Z,10.80
2022-12-25T11:11:07.129Z,10.80
2022-12-25T11:13:41.739Z,10.90
2022-12-25T11:16:36.694Z,10.90
2022-12-25T11:19:24.718Z,10.80
2022-12-25T11:21:56.411Z,10.90
2022-12-25T11:24:29.892Z,11.10
2022-12-25T11:27:07.504Z,10.90
2022-12-25T11:29:48.549Z,10.90
2022-12-25T11:32:36.219Z,10.60
2022-12-25T11:37:43.199Z,10.80
2022-12-25T11:40:26.517Z,10.90
2022-12-25T11:43:07.689Z,10.90
2022-12-25T11:45:46.530Z,10.90
2022-12-25T11:51:03.666Z,10.90
2022-12-25T11:53:45.279Z,10.80
2022-12-25T11:56:23.259Z,10.80
2022-12-25T11:59:02.728Z,10.80
2022-12-25T12:02:15.146Z,10.90
2022-12-25T12:04:45.547Z,10.90
2022-12-25T12:07:31.995Z,11.00
2022-12-25T12:10:19.660Z,11.00
2022-12-25T12:12:53.923Z,10.60
2022-12-25T12:15:31.845Z,11.30
2022-12-25T12:18:27.170Z,10.60
2022-12-25T12:21:17.840Z,11.10
2022-12-25T12:24:17.100Z,11.20
2022-12-25T12:26:47.632Z,11.30
2022-12-25T12:29:30.244Z,11.30
2022-12-25T12:32:21.416Z,11.50
2022-12-25T12:34:50.737Z,11.30
2022-12-25T12:37:24.979Z,11.80
2022-12-25T12:39:56.144Z,11.30
2022-12-25T12:42:29.178Z,10.50
2022-12-25T12:45:11.716Z,11.70
2022-12-25T12:47:43.804Z,11.40
2022-12-25T12:50:42.235Z,11.40
2022-12-25T12:53:25.267Z,11.40
2022-12-25T12:55:53.842Z,11.40
2022-12-25T12:58:51.042Z,11.10
2022-12-25T13:01:49.773Z,11.50
2022-12-25T13:05:06.030Z,11.40
2022-12-25T13:08:02.246Z,11.20
2022-12-25T13:10:38.103Z,11.10
2022-12-25T13:13:25.600Z,11.30
2022-12-25T13:15:56.075Z,11.10
2022-12-25T13:18:24.241Z,11.70
2022-12-25T13:21:03.622Z,10.70
2022-12-25T13:23:35.941Z,10.80
2022-12-25T13:26:12.076Z,11.70
2022-12-25T13:28:40.569Z,10.80
2022-12-25T13:31:25.625Z,11.10
2022-12-25T13:34:31.930Z,10.90
2022-12-25T13:37:27.556Z,11.10
2022-12-25T13:40:02.901Z,10.90
2022-12-25T13:42:33.769Z,11.10
2022-12-25T13:45:08.509Z,11.10
2022-12-25T13:47:51.450Z,11.10
2022-12-25T13:50:31.072Z,11.60
2022-12-25T13:53:13.349Z,11.10
2022-12-25T13:55:43.132Z,10.70
2022-12-25T13:58:29.814Z,11.10
2022-12-25T14:01:04.220Z,11.60
2022-12-25T14:03:43.714Z,10.50
2022-12-25T14:06:27.301Z,10.90
2022-12-25T14:08:59.988Z,10.90
2022-12-25T14:11:30.878Z,10.90
2022-12-25T14:14:09.372Z,10.90
2022-12-25T14:16:37.682Z,11.30
2022-12-25T14:19:30.210Z,10.90
2022-12-25T14:22:26.574Z,10.90
2022-12-25T14:24:55.091Z,11.20
2022-12-25T14:27:30.345Z,10.80
2022-12-25T14:30:01.015Z,11.40
2022-12-25T14:32:32.962Z,10.80
2022-12-25T14:35:03.644Z,10.70
2022-12-25T14:37:34.162Z,10.70
2022-12-25T14:40:22.706Z,10.70
2022-12-25T14:43:06.772Z,10.70
2022-12-25T14:45:39.756Z,10.10
2022-12-25T14:48:27.968Z,10.60
2022-12-25T14:51:05.787Z,10.70
2022-12-25T14:53:49.043Z,10.60
2022-12-25T14:56:25.933Z,10.90
2022-12-25T14:58:57.357Z,10.90
2022-12-25T15:01:38.975Z,10.40
2022-12-25T15:04:15.435Z,10.10
2022-12-25T15:07:07.400Z,12.10
2022-12-25T15:17:06.788Z,9.90
2022-12-25T15:19:39.152Z,10.30
2022-12-25T15:22:07.945Z,10.30
2022-12-25T15:27:05.517Z,10.40
2022-12-25T15:32:25.230Z,9.90
2022-12-25T15:42:25.280Z,10.30
2022-12-25T15:47:23.156Z,9.80
2022-12-25T15:49:51.463Z,10.80
2022-12-25T15:52:20.061Z,10.70
2022-12-25T15:57:23.568Z,10.40
2022-12-25T16:02:21.911Z,10.10
2022-12-25T16:04:51.225Z,10.10
2022-12-25T16:07:25.880Z,10.00
2022-12-25T16:14:51.089Z,10.50
2022-12-25T16:19:48.048Z,10.30
2022-12-25T16:22:26.666Z,10.50
2022-12-25T16:24:55.123Z,10.40
2022-12-25T16:32:20.795Z,10.70
2022-12-25T16:34:50.400Z,10.20
2022-12-25T16:47:13.018Z,10.30
2022-12-25T16:49:41.311Z,9.90
2022-12-25T16:52:09.334Z,10.90
2022-12-25T16:59:35.859Z,10.10
2022-12-25T17:09:29.923Z,9.80
2022-12-25T17:16:55.210Z,10.20
2022-12-25T17:19:24.908Z,10.30
2022-12-25T17:21:54.771Z,10.40
2022-12-25T17:24:23.685Z,9.80
2022-12-25T17:49:20.671Z,10.20
2022-12-25T17:51:49.634Z,10.30
2022-12-25T17:59:18.514Z,10.30
2022-12-25T18:06:51.567Z,10.30
2022-12-25T18:09:19.940Z,10.50
2022-12-25T18:11:48.128Z,10.10
2022-12-25T18:14:18.330Z,10.60
2022-12-25T18:16:46.905Z,9.60
2022-12-25T18:19:17.756Z,10.30
2022-12-25T18:31:40.335Z,10.00
2022-12-25T18:34:08.359Z,9.90
2022-12-25T18:39:18.629Z,10.30
2022-12-25T18:42:03.006Z,9.80
2022-12-25T18:44:31.462Z,8.70
2022-12-25T18:47:03.655Z,10.50
2022-12-25T18:59:46.971Z,10.90
2022-12-25T19:02:16.811Z,10.70
2022-12-25T20:01:51.534Z,11.40
2022-12-25T20:09:21.568Z,10.90
2022-12-25T20:19:16.858Z,11.40
2022-12-25T20:26:47.503Z,11.70
2022-12-25T20:29:15.911Z,11.00
2022-12-25T20:34:12.881Z,11.60
2022-12-25T20:36:41.373Z,12.00
2022-12-25T20:39:10.461Z,11.60
2022-12-25T20:44:10.588Z,11.80
2022-12-25T20:49:14.835Z,11.70
2022-12-25T20:56:43.034Z,11.10
2022-12-25T21:04:14.434Z,11.30
2022-12-25T21:06:44.246Z,11.90
2022-12-25T21:14:29.571Z,11.60
2022-12-25T21:16:57.727Z,11.60
2022-12-25T21:29:24.344Z,12.40
2022-12-25T21:34:39.839Z,11.40
2022-12-25T21:59:42.064Z,11.40
2022-12-25T22:02:12.173Z,12.00
2022-12-25T22:04:46.486Z,11.90
2022-12-25T22:09:50.848Z,12.10
2022-12-25T22:12:39.288Z,12.00
2022-12-25T22:15:09.986Z,12.00
2022-12-25T22:17:58.919Z,11.90
2022-12-25T22:20:34.531Z,12.50
2022-12-25T22:23:02.913Z,12.50
2022-12-25T22:27:59.807Z,11.90
2022-12-25T22:30:30.391Z,11.90
2022-12-25T22:35:27.451Z,12.50
2022-12-25T22:42:56.078Z,12.00
2022-12-25T22:55:20.317Z,12.10
2022-12-25T23:10:12.175Z,12.10
2022-12-25T23:20:59.275Z,11.60
2022-12-25T23:23:44.448Z,11.30
2022-12-25T23:29:02.188Z,11.90
2022-12-25T23:31:35.599Z,10.30
2022-12-25T23:34:04.854Z,11.70
2022-12-25T23:44:11.757Z,11.90
2022-12-25T23:46:41.274Z,11.70
2022-12-25T23:54:22.956Z,11.50
2022-12-25T23:56:51.350Z,11.80
